createdAt,value
2018-12-06T00:01:46.216Z,17.27
2018-12-06T00:04:14.396Z,18.00
2018-12-06T00:06:42.598Z,16.20
2018-12-06T00:09:10.768Z,18.95
2018-12-06T00:11:38.956Z,16.40
2018-12-06T00:14:07.113Z,16.73
2018-12-06T00:16:35.306Z,16.42
2018-12-06T00:19:07.668Z,15.80
2018-12-06T00:21:36.012Z,20.27
2018-12-06T00:24:04.177Z,15.88
2018-12-06T00:26:32.372Z,17.30
2018-12-06T00:29:00.641Z,17.70
2018-12-06T00:31:28.910Z,16.27
2018-12-06T00:33:57.121Z,20.35
2018-12-06T00:36:25.315Z,18.52
2018-12-06T00:38:53.500Z,20.43
2018-12-06T00:41:21.729Z,19.87
2018-12-06T00:43:49.872Z,20.55
2018-12-06T00:46:18.049Z,20.55
2018-12-06T00:48:46.244Z,19.85
2018-12-06T00:51:14.424Z,23.90
2018-12-06T00:53:42.618Z,18.07
2018-12-06T00:56:10.817Z,20.12
2018-12-06T00:58:38.992Z,25.43
2018-12-06T01:01:07.167Z,21.45
2018-12-06T01:03:35.257Z,18.57
2018-12-06T01:06:03.340Z,29.45
2018-12-06T01:08:31.537Z,33.25
2018-12-06T01:10:59.714Z,25.48
2018-12-06T01:13:27.908Z,29.37
2018-12-06T01:15:56.092Z,23.22
2018-12-06T01:18:24.281Z,19.50
2018-12-06T01:20:52.361Z,23.02
2018-12-06T01:23:20.553Z,21.00
2018-12-06T01:25:48.737Z,24.05
2018-12-06T01:28:16.933Z,18.75
2018-12-06T01:30:45.109Z,20.12
2018-12-06T01:33:13.304Z,20.10
2018-12-06T01:35:41.484Z,21.20
2018-12-06T01:38:09.681Z,20.12
2018-12-06T01:40:37.861Z,18.17
2018-12-06T01:43:06.057Z,20.20
2018-12-06T01:45:34.229Z,20.92
2018-12-06T01:48:02.421Z,19.23
2018-12-06T01:50:30.616Z,18.85
2018-12-06T01:52:58.789Z,20.82
2018-12-06T01:55:26.980Z,22.65
2018-12-06T01:57:55.165Z,16.37
2018-12-06T02:00:23.348Z,19.02
2018-12-06T02:02:51.424Z,20.97
2018-12-06T02:05:19.519Z,17.40
2018-12-06T02:07:47.915Z,19.95
2018-12-06T02:10:15.996Z,21.48
2018-12-06T02:12:44.178Z,18.20
2018-12-06T02:15:12.269Z,19.27
2018-12-06T02:17:40.454Z,17.25
2018-12-06T02:20:08.544Z,26.75
2018-12-06T02:22:37.632Z,18.12
2018-12-06T02:25:05.720Z,20.50
2018-12-06T02:27:33.804Z,20.45
2018-12-06T02:30:01.905Z,21.65
2018-12-06T02:32:30.079Z,20.32
2018-12-06T02:34:58.273Z,17.10
2018-12-06T02:37:26.457Z,23.20
2018-12-06T02:39:54.648Z,16.00
2018-12-06T02:42:22.825Z,17.77
2018-12-06T02:44:51.092Z,19.75
2018-12-06T02:47:19.305Z,22.13
2018-12-06T02:49:47.585Z,20.80
2018-12-06T02:52:15.848Z,20.37
2018-12-06T02:54:43.976Z,18.57
2018-12-06T02:57:12.156Z,19.65
2018-12-06T02:59:40.271Z,18.60
2018-12-06T03:02:08.424Z,20.10
2018-12-06T03:04:36.509Z,17.50
2018-12-06T03:07:04.596Z,21.80
2018-12-06T03:09:32.672Z,16.00
2018-12-06T03:12:00.769Z,19.12
2018-12-06T03:14:28.949Z,21.85
2018-12-06T03:16:57.036Z,19.07
2018-12-06T03:19:25.220Z,20.77
2018-12-06T03:21:53.315Z,21.40
2018-12-06T03:24:21.488Z,19.10
2018-12-06T03:26:49.584Z,24.82
2018-12-06T03:29:17.769Z,19.45
2018-12-06T03:31:45.997Z,18.15
2018-12-06T03:34:14.240Z,21.10
2018-12-06T03:36:42.436Z,19.35
2018-12-06T03:39:10.630Z,18.12
2018-12-06T03:41:38.813Z,21.87
2018-12-06T03:44:07.098Z,21.15
2018-12-06T03:46:35.287Z,20.10
2018-12-06T03:49:03.476Z,22.93
2018-12-06T03:51:31.673Z,24.07
2018-12-06T03:53:59.836Z,23.92
2018-12-06T03:56:27.921Z,22.10
2018-12-06T03:58:56.020Z,27.52
2018-12-06T04:01:24.194Z,28.35
2018-12-06T04:03:52.268Z,26.25
2018-12-06T04:06:20.468Z,29.72
2018-12-06T04:08:48.651Z,25.62
2018-12-06T04:11:16.896Z,27.65
2018-12-06T04:13:45.137Z,27.55
2018-12-06T04:16:13.336Z,28.23
2018-12-06T04:18:41.529Z,23.55
2018-12-06T04:21:09.696Z,25.45
2018-12-06T04:23:37.892Z,26.17
2018-12-06T04:26:06.060Z,27.82
2018-12-06T04:28:34.158Z,22.98
2018-12-06T04:31:02.336Z,29.57
2018-12-06T04:33:30.542Z,25.65
2018-12-06T04:35:58.712Z,25.30
2018-12-06T04:38:26.818Z,32.93
2018-12-06T04:40:54.980Z,36.42
2018-12-06T04:43:23.072Z,32.40
2018-12-06T04:45:51.248Z,30.88
2018-12-06T04:48:22.190Z,31.15
2018-12-06T04:50:49.474Z,33.05
2018-12-06T04:53:17.681Z,35.70
2018-12-06T04:55:45.845Z,31.87
2018-12-06T04:58:13.920Z,32.53
2018-12-06T05:00:42.125Z,32.17
2018-12-06T05:03:10.312Z,33.53
2018-12-06T05:05:38.500Z,33.75
2018-12-06T05:08:06.672Z,27.93
2018-12-06T05:10:34.872Z,36.83
2018-12-06T05:13:03.053Z,28.42
2018-12-06T05:15:31.245Z,34.48
2018-12-06T05:17:59.567Z,30.90
2018-12-06T05:20:27.720Z,33.40
2018-12-06T05:22:55.792Z,31.68
2018-12-06T05:25:23.890Z,29.10
2018-12-06T05:27:52.064Z,30.45
2018-12-06T05:30:20.166Z,32.10
2018-12-06T05:32:48.357Z,29.07
2018-12-06T05:35:16.534Z,36.50
2018-12-06T05:37:44.713Z,30.25
2018-12-06T05:40:12.813Z,26.87
2018-12-06T05:42:40.993Z,28.47
2018-12-06T05:45:09.100Z,32.50
2018-12-06T05:47:37.260Z,33.08
2018-12-06T05:50:06.560Z,33.02
2018-12-06T05:52:34.661Z,36.60
2018-12-06T05:55:02.860Z,42.13
2018-12-06T05:57:31.024Z,39.18
2018-12-06T05:59:59.113Z,42.00
2018-12-06T06:02:27.212Z,40.58
2018-12-06T06:04:55.380Z,44.55
2018-12-06T06:07:23.725Z,41.88
2018-12-06T06:09:51.860Z,38.48
2018-12-06T06:12:19.996Z,35.40
2018-12-06T06:14:48.248Z,47.53
2018-12-06T06:17:16.436Z,38.53
2018-12-06T06:19:44.604Z,39.58
2018-12-06T06:22:12.702Z,40.12
2018-12-06T06:24:40.888Z,38.65
2018-12-06T06:27:09.077Z,39.90
2018-12-06T06:29:37.253Z,44.75
2018-12-06T06:32:05.356Z,39.08
2018-12-06T06:34:33.525Z,40.20
2018-12-06T06:37:01.620Z,37.88
2018-12-06T06:39:29.805Z,36.13
2018-12-06T06:41:57.993Z,39.13
2018-12-06T06:44:26.168Z,35.38
2018-12-06T06:46:54.264Z,42.65
2018-12-06T06:49:22.444Z,38.15
2018-12-06T06:51:50.534Z,38.98
2018-12-06T06:54:18.720Z,39.42
2018-12-06T06:56:46.813Z,33.67
2018-12-06T06:59:14.976Z,31.42
2018-12-06T07:01:43.070Z,39.73
2018-12-06T07:04:11.155Z,39.67
2018-12-06T07:06:39.350Z,35.75
2018-12-06T07:09:08.024Z,41.92
2018-12-06T07:11:36.352Z,39.03
2018-12-06T07:14:04.761Z,36.98
2018-12-06T07:16:32.912Z,34.03
2018-12-06T07:19:01.108Z,31.90
2018-12-06T07:21:29.276Z,36.70
2018-12-06T07:23:57.378Z,40.25
2018-12-06T07:26:25.572Z,31.15
2018-12-06T07:28:53.745Z,30.12
2018-12-06T07:31:21.832Z,32.38
2018-12-06T07:33:50.021Z,33.83
2018-12-06T07:36:18.201Z,37.80
2018-12-06T07:38:46.392Z,36.28
2018-12-06T07:41:14.568Z,32.67
2018-12-06T07:43:42.668Z,36.30
2018-12-06T07:46:11.495Z,39.88
2018-12-06T07:48:39.688Z,37.35
2018-12-06T07:51:07.844Z,33.78
2018-12-06T07:53:36.029Z,39.48
2018-12-06T07:56:04.204Z,35.03
2018-12-06T07:58:32.302Z,34.25
2018-12-06T08:01:00.488Z,36.73
2018-12-06T08:03:28.672Z,35.17
2018-12-06T08:05:56.860Z,34.48
2018-12-06T08:08:25.056Z,35.48
2018-12-06T08:10:53.224Z,33.63
2018-12-06T08:13:21.304Z,39.70
2018-12-06T08:15:49.407Z,33.73
2018-12-06T08:18:17.575Z,36.17
2018-12-06T08:20:45.776Z,36.45
2018-12-06T08:23:13.954Z,38.95
2018-12-06T08:25:42.045Z,39.00
2018-12-06T08:28:10.230Z,44.40
2018-12-06T08:30:38.423Z,44.95
2018-12-06T08:33:06.609Z,43.10
2018-12-06T08:35:34.788Z,38.45
2018-12-06T08:38:02.973Z,50.20
2018-12-06T08:40:31.053Z,40.95
2018-12-06T08:42:59.244Z,45.20
2018-12-06T08:45:27.349Z,42.30
2018-12-06T08:47:55.516Z,42.05
2018-12-06T08:50:23.605Z,51.13
2018-12-06T08:52:51.680Z,50.67
2018-12-06T08:55:19.778Z,43.90
2018-12-06T08:57:48.068Z,55.25
2018-12-06T09:00:16.153Z,47.17
2018-12-06T09:02:44.329Z,45.55
2018-12-06T09:05:12.411Z,51.55
2018-12-06T09:07:40.500Z,48.83
2018-12-06T09:10:08.831Z,47.80
2018-12-06T09:12:36.972Z,51.83
2018-12-06T09:15:06.679Z,48.45
2018-12-06T09:17:34.764Z,49.08
2018-12-06T09:20:02.866Z,52.13
2018-12-06T09:22:30.957Z,51.30
2018-12-06T09:24:59.136Z,49.20
2018-12-06T09:27:27.233Z,53.10
2018-12-06T09:29:55.305Z,54.10
2018-12-06T09:32:23.504Z,50.63
2018-12-06T09:34:51.692Z,50.00
2018-12-06T09:37:19.881Z,52.93
2018-12-06T09:39:56.843Z,54.88
2018-12-06T09:42:24.947Z,56.23
2018-12-06T09:44:53.133Z,54.67
2018-12-06T09:47:21.332Z,55.83
2018-12-06T09:49:49.436Z,53.15
2018-12-06T09:52:18.629Z,56.60
2018-12-06T09:54:46.804Z,59.58
2018-12-06T09:57:15.046Z,58.95
2018-12-06T09:59:43.180Z,54.77
2018-12-06T10:02:11.274Z,58.17
2018-12-06T10:04:39.462Z,54.60
2018-12-06T10:07:07.625Z,54.90
2018-12-06T10:09:35.720Z,57.50
2018-12-06T10:12:03.917Z,51.73
2018-12-06T10:14:32.102Z,51.63
2018-12-06T10:17:00.300Z,58.65
2018-12-06T10:19:28.463Z,61.18
2018-12-06T10:21:56.560Z,54.98
2018-12-06T10:24:24.763Z,51.25
2018-12-06T10:26:52.941Z,57.20
2018-12-06T10:29:21.098Z,50.15
2018-12-06T10:31:49.209Z,50.55
2018-12-06T10:34:17.380Z,79.95
2018-12-06T10:36:45.480Z,53.38
2018-12-06T10:39:13.668Z,51.63
2018-12-06T10:41:41.844Z,57.93
2018-12-06T10:44:09.972Z,53.08
2018-12-06T10:46:38.116Z,52.25
2018-12-06T10:49:06.314Z,49.88
2018-12-06T10:51:42.161Z,47.93
2018-12-06T10:54:10.366Z,51.98
2018-12-06T10:56:38.556Z,46.95
2018-12-06T10:59:06.740Z,39.95
2018-12-06T11:01:40.404Z,40.33
2018-12-06T11:04:08.540Z,39.60
2018-12-06T11:06:36.729Z,37.65
2018-12-06T11:09:06.940Z,41.25
2018-12-06T11:11:35.050Z,38.78
2018-12-06T11:14:03.397Z,42.05
2018-12-06T11:16:31.637Z,45.17
2018-12-06T11:18:59.813Z,44.03
2018-12-06T11:21:27.992Z,47.40
2018-12-06T11:23:56.168Z,44.60
2018-12-06T11:26:24.264Z,50.30
2018-12-06T11:28:52.456Z,39.98
2018-12-06T11:31:20.635Z,45.85
2018-12-06T11:33:48.728Z,47.27
2018-12-06T11:36:16.913Z,40.98
2018-12-06T11:38:45.100Z,43.75
2018-12-06T11:41:13.282Z,41.63
2018-12-06T11:43:41.481Z,42.35
2018-12-06T11:46:09.656Z,35.08
2018-12-06T11:48:37.765Z,43.05
2018-12-06T11:51:05.926Z,35.30
2018-12-06T11:53:34.080Z,33.55
2018-12-06T11:56:02.212Z,34.85
2018-12-06T11:58:30.464Z,32.38
2018-12-06T12:00:58.583Z,30.88
2018-12-06T12:03:26.764Z,28.83
2018-12-06T12:05:58.610Z,30.77
2018-12-06T12:08:25.084Z,27.85
2018-12-06T12:10:53.289Z,27.67
2018-12-06T12:13:21.462Z,25.10
2018-12-06T12:15:49.656Z,27.58
2018-12-06T12:18:17.740Z,24.85
2018-12-06T12:20:45.923Z,27.98
2018-12-06T12:23:14.112Z,29.72
2018-12-06T12:25:42.297Z,33.78
2018-12-06T12:28:10.473Z,33.83
2018-12-06T12:30:38.573Z,29.12
2018-12-06T12:33:06.651Z,32.42
2018-12-06T12:35:34.965Z,25.02
2018-12-06T12:38:03.120Z,27.35
2018-12-06T12:40:31.325Z,22.67
2018-12-06T12:42:59.500Z,25.45
2018-12-06T12:45:27.689Z,23.27
2018-12-06T12:47:55.868Z,19.23
2018-12-06T12:50:23.953Z,18.98
2018-12-06T12:52:52.248Z,20.75
2018-12-06T12:55:20.332Z,19.42
2018-12-06T12:57:48.519Z,20.23
2018-12-06T13:00:16.705Z,22.93
2018-12-06T13:02:44.896Z,18.80
2018-12-06T13:05:13.071Z,18.90
2018-12-06T13:07:41.180Z,19.45
2018-12-06T13:10:09.353Z,21.02
2018-12-06T13:12:37.541Z,19.37
2018-12-06T13:15:06.828Z,20.02
2018-12-06T13:17:34.940Z,22.30
2018-12-06T13:20:03.176Z,18.40
2018-12-06T13:22:31.312Z,18.37
2018-12-06T13:24:59.494Z,20.92
2018-12-06T13:27:27.696Z,19.45
2018-12-06T13:29:55.865Z,15.85
2018-12-06T13:32:24.058Z,20.20
2018-12-06T13:34:52.261Z,17.32
2018-12-06T13:37:20.547Z,17.17
2018-12-06T13:39:48.750Z,16.80
2018-12-06T13:42:23.348Z,15.48
2018-12-06T13:44:47.056Z,14.15
2018-12-06T13:47:15.229Z,16.52
2018-12-06T13:49:43.417Z,16.95
2018-12-06T13:52:11.620Z,13.93
2018-12-06T13:54:39.786Z,15.55
2018-12-06T13:57:07.968Z,12.00
2018-12-06T13:59:36.165Z,14.83
2018-12-06T14:02:04.346Z,13.85
2018-12-06T14:04:32.537Z,18.25
2018-12-06T14:07:00.608Z,18.17
2018-12-06T14:09:28.805Z,11.63
2018-12-06T14:11:56.987Z,14.53
2018-12-06T14:14:25.188Z,10.88
2018-12-06T14:16:53.359Z,12.58
2018-12-06T14:19:21.448Z,15.50
2018-12-06T14:21:49.640Z,20.25
2018-12-06T14:24:17.825Z,13.30
2018-12-06T14:26:46.116Z,12.45
2018-12-06T14:29:14.201Z,17.30
2018-12-06T14:31:42.380Z,21.57
2018-12-06T14:34:10.481Z,15.03
2018-12-06T14:36:38.652Z,15.43
2018-12-06T14:39:08.682Z,12.35
2018-12-06T14:41:37.001Z,13.03
2018-12-06T14:44:05.274Z,20.02
2018-12-06T14:46:33.446Z,18.32
2018-12-06T14:49:01.646Z,17.23
2018-12-06T14:51:29.826Z,19.48
2018-12-06T14:53:58.016Z,16.95
2018-12-06T14:56:26.192Z,16.87
2018-12-06T14:58:54.304Z,22.20
2018-12-06T15:01:22.470Z,21.62
2018-12-06T15:03:50.653Z,20.52
2018-12-06T15:06:18.786Z,18.70
2018-12-06T15:08:46.928Z,20.45
2018-12-06T15:11:15.203Z,16.87
2018-12-06T15:13:43.408Z,15.40
2018-12-06T15:16:11.597Z,16.93
2018-12-06T15:18:39.777Z,20.48
2018-12-06T15:21:07.868Z,20.10
2018-12-06T15:23:36.051Z,17.20
2018-12-06T15:26:04.240Z,20.55
2018-12-06T15:28:32.428Z,19.30
2018-12-06T15:31:00.614Z,17.07
2018-12-06T15:33:28.800Z,18.40
2018-12-06T15:35:56.989Z,33.42
2018-12-06T15:38:25.172Z,17.60
2018-12-06T15:40:53.360Z,19.40
2018-12-06T15:43:21.541Z,21.23
2018-12-06T15:45:49.744Z,20.97
2018-12-06T15:48:17.921Z,19.67
2018-12-06T15:50:46.001Z,20.15
2018-12-06T15:54:04.364Z,23.00
2018-12-06T15:56:32.445Z,18.40
2018-12-06T15:59:00.536Z,23.90
2018-12-06T16:01:28.728Z,28.20
2018-12-06T16:03:56.908Z,29.02
2018-12-06T16:06:25.005Z,19.77
2018-12-06T16:08:53.185Z,20.77
2018-12-06T16:11:21.376Z,24.90
2018-12-06T16:13:49.558Z,26.00
2018-12-06T16:16:17.753Z,26.12
2018-12-06T16:18:45.936Z,22.25
2018-12-06T16:21:14.125Z,24.43
2018-12-06T16:23:42.313Z,21.82
2018-12-06T16:26:10.501Z,24.15
2018-12-06T16:28:38.577Z,27.70
2018-12-06T16:31:06.764Z,24.90
2018-12-06T16:33:34.952Z,25.43
2018-12-06T16:36:03.132Z,21.57
2018-12-06T16:38:31.252Z,27.27
2018-12-06T16:40:59.414Z,31.85
2018-12-06T16:43:27.600Z,27.77
2018-12-06T16:45:55.777Z,25.32
2018-12-06T16:48:23.869Z,23.62
2018-12-06T16:50:52.053Z,22.07
2018-12-06T16:53:20.146Z,18.82
2018-12-06T16:55:48.326Z,24.23
2018-12-06T16:58:16.518Z,22.95
2018-12-06T17:00:44.717Z,20.55
2018-12-06T17:03:12.833Z,22.93
2018-12-06T17:05:40.968Z,23.32
2018-12-06T17:08:09.065Z,23.00
2018-12-06T17:10:37.240Z,22.27
2018-12-06T17:13:05.324Z,20.95
2018-12-06T17:15:33.517Z,19.27
2018-12-06T17:18:01.708Z,23.67
2018-12-06T17:20:29.880Z,24.12
2018-12-06T17:22:57.977Z,23.77
2018-12-06T17:25:26.155Z,22.98
2018-12-06T17:27:54.348Z,21.48
2018-12-06T17:30:22.537Z,21.95
2018-12-06T17:32:50.696Z,17.80
2018-12-06T17:35:18.836Z,17.10
2018-12-06T17:37:47.101Z,22.55
2018-12-06T17:40:15.292Z,20.32
2018-12-06T17:42:43.459Z,17.45
2018-12-06T17:45:11.566Z,20.80
2018-12-06T17:47:39.741Z,24.18
2018-12-06T17:50:07.935Z,19.10
2018-12-06T17:52:36.021Z,23.65
2018-12-06T17:55:05.113Z,19.15
2018-12-06T17:57:33.236Z,17.30
2018-12-06T18:00:01.403Z,24.90
2018-12-06T18:02:30.601Z,19.57
2018-12-06T18:04:58.797Z,17.70
2018-12-06T18:07:26.972Z,16.40
2018-12-06T18:09:55.169Z,18.75
2018-12-06T18:12:23.352Z,15.90
2018-12-06T18:14:51.545Z,21.97
2018-12-06T18:17:19.719Z,16.50
2018-12-06T18:19:47.808Z,19.05
2018-12-06T18:22:16.017Z,16.30
2018-12-06T18:24:44.196Z,18.62
2018-12-06T18:27:12.365Z,16.82
2018-12-06T18:29:40.564Z,19.12
2018-12-06T18:32:08.739Z,14.25
2018-12-06T18:34:36.941Z,12.90
2018-12-06T18:37:05.112Z,15.10
2018-12-06T18:39:33.301Z,17.55
2018-12-06T18:42:01.500Z,19.45
2018-12-06T18:44:29.885Z,14.50
2018-12-06T18:46:57.946Z,15.50
2018-12-06T18:49:26.049Z,14.43
2018-12-06T18:51:54.137Z,19.45
2018-12-06T18:54:22.320Z,18.30
2018-12-06T18:56:50.512Z,16.80
2018-12-06T18:59:18.698Z,15.40
2018-12-06T19:01:46.883Z,21.10
2018-12-06T19:04:15.168Z,17.75
2018-12-06T19:06:44.377Z,16.35
2018-12-06T19:09:12.472Z,18.60
2018-12-06T19:11:40.661Z,12.07
2018-12-06T19:14:08.842Z,15.98
2018-12-06T19:16:37.037Z,15.68
2018-12-06T19:19:05.213Z,18.82
2018-12-06T19:21:33.404Z,11.90
2018-12-06T19:24:01.590Z,15.58
2018-12-06T19:26:29.676Z,16.07
2018-12-06T19:28:57.852Z,16.97
2018-12-06T19:31:26.052Z,15.90
2018-12-06T19:33:54.224Z,13.38
2018-12-06T19:36:22.325Z,11.68
2018-12-06T19:38:50.543Z,16.65
2018-12-06T19:41:18.688Z,14.33
2018-12-06T19:43:46.821Z,11.95
2018-12-06T19:46:14.945Z,11.05
2018-12-06T19:48:43.148Z,12.75
2018-12-06T19:51:11.446Z,10.78
2018-12-06T19:53:39.580Z,14.30
2018-12-06T19:56:07.844Z,12.07
2018-12-06T19:58:36.000Z,10.45
2018-12-06T20:01:04.184Z,11.53
2018-12-06T20:03:32.372Z,14.25
2018-12-06T20:06:00.557Z,12.00
2018-12-06T20:08:28.649Z,16.25
2018-12-06T20:10:56.829Z,9.28
2018-12-06T20:13:24.921Z,9.80
2018-12-06T20:15:53.128Z,12.33
2018-12-06T20:18:21.296Z,13.08
2018-12-06T20:20:49.473Z,11.08
2018-12-06T20:23:17.588Z,12.00
2018-12-06T20:25:45.745Z,10.60
2018-12-06T20:28:14.027Z,9.33
2018-12-06T20:30:42.127Z,12.15
2018-12-06T20:33:10.329Z,8.50
2018-12-06T20:35:38.495Z,10.95
2018-12-06T20:38:06.576Z,8.90
2018-12-06T20:40:34.761Z,8.35
2018-12-06T20:43:02.856Z,9.98
2018-12-06T20:45:31.037Z,8.25
2018-12-06T20:47:59.121Z,8.68
2018-12-06T20:50:27.302Z,8.10
2018-12-06T20:52:55.398Z,10.08
2018-12-06T20:55:23.477Z,7.05
2018-12-06T20:57:51.556Z,7.95
2018-12-06T21:00:19.648Z,11.00
2018-12-06T21:02:47.945Z,11.25
2018-12-06T21:05:16.032Z,9.60
2018-12-06T21:07:44.210Z,10.48
2018-12-06T21:10:12.444Z,9.13
2018-12-06T21:12:40.588Z,10.18
2018-12-06T21:15:08.675Z,9.75
2018-12-06T21:17:36.844Z,7.33
2018-12-06T21:20:05.941Z,7.08
2018-12-06T21:22:34.040Z,10.93
2018-12-06T21:25:02.141Z,10.65
2018-12-06T21:27:30.324Z,10.35
2018-12-06T21:29:58.521Z,7.50
2018-12-06T21:32:27.608Z,7.47
2018-12-06T21:34:55.716Z,8.48
2018-12-06T21:37:23.884Z,7.35
2018-12-06T21:39:51.984Z,11.10
2018-12-06T21:42:20.165Z,7.08
2018-12-06T21:44:48.352Z,7.90
2018-12-06T21:47:22.144Z,7.50
2018-12-06T21:49:50.395Z,6.95
2018-12-06T21:52:18.532Z,7.00
2018-12-06T21:54:46.630Z,6.10
2018-12-06T21:57:14.808Z,7.53
2018-12-06T21:59:42.883Z,5.75
2018-12-06T22:02:22.780Z,6.25
2018-12-06T22:04:50.948Z,6.15
2018-12-06T22:07:19.124Z,5.08
2018-12-06T22:09:47.213Z,5.92
2018-12-06T22:12:15.431Z,5.80
2018-12-06T22:14:43.578Z,5.37
2018-12-06T22:17:11.784Z,6.35
2018-12-06T22:19:39.956Z,5.30
2018-12-06T22:22:08.044Z,5.47
2018-12-06T22:24:36.293Z,5.08
2018-12-06T22:27:04.427Z,5.70
2018-12-06T22:29:32.672Z,5.20
2018-12-06T22:32:00.802Z,4.97
2018-12-06T22:34:29.071Z,4.62
2018-12-06T22:36:57.194Z,4.80
2018-12-06T22:39:25.348Z,6.08
2018-12-06T22:41:53.441Z,4.92
2018-12-06T22:44:21.623Z,5.10
2018-12-06T22:46:49.815Z,5.65
2018-12-06T22:49:18.002Z,4.42
2018-12-06T22:51:46.089Z,4.85
2018-12-06T22:54:14.148Z,4.85
2018-12-06T22:56:42.268Z,4.60
2018-12-06T22:59:10.448Z,5.75
2018-12-06T23:01:39.928Z,4.72
2018-12-06T23:04:08.636Z,6.37
2018-12-06T23:06:36.985Z,7.92
2018-12-06T23:09:08.506Z,5.42
2018-12-06T23:11:37.397Z,4.30
2018-12-06T23:14:05.606Z,4.00
2018-12-06T23:16:33.813Z,8.35
2018-12-06T23:19:02.317Z,6.42
2018-12-06T23:21:30.460Z,5.50
2018-12-06T23:23:58.800Z,4.28
2018-12-06T23:26:26.938Z,4.25
2018-12-06T23:28:55.036Z,4.20
2018-12-06T23:31:23.223Z,5.85
2018-12-06T23:33:51.403Z,4.40
2018-12-06T23:36:19.485Z,5.28
2018-12-06T23:38:47.577Z,4.40
2018-12-06T23:41:15.842Z,3.92
2018-12-06T23:43:44.061Z,5.40
2018-12-06T23:46:12.228Z,4.10
2018-12-06T23:48:40.353Z,3.70
2018-12-06T23:51:19.768Z,4.50
2018-12-06T23:53:47.864Z,4.78
2018-12-06T23:56:15.935Z,4.42
2018-12-06T23:58:44.024Z,6.05
